Airfield :
LOGIN :

Register | Disclaimer

   EN    FR    IT 

 










Legend :    VFR   Marginal VFR   IFR   Intensive IFR   Very Intensive IFR
Visi :
Ceiling :
>= 8 km
>= 3000ft
5 to 8 km
1000 to 3000 ft
1500m to 5 km
500 to 1000 ft
800 to 1500m
200 to 500 ft
< 800m
< 200 ft
Symbols :   Thunderstorms  Fog  Heavy snow  Heavy precipitations  Wind > 20 kt
SIGMETs :     Misc.  Thunderstorms  Icing  Turbulence  Mountain Waves  Volcanic Ashes







- Airport Elevation : 423 ft
- IATA code : PIS
- Download approach charts


LFBI - Poitiers

CURRENT METAR :
  • 221100Z AUTO 08006KT 020V170 CAVOK 31/12 Q1022 NOSIG

EXPIRED METARs :
  • 221030Z AUTO 05006KT 340V100 CAVOK 30/13 Q1023 NOSIG
  • 221000Z AUTO 06005KT 360V150 CAVOK 30/13 Q1023 NOSIG
  • 220930Z AUTO 08005KT 030V140 CAVOK 29/14 Q1023 NOSIG
  • 220900Z AUTO 07004KT 010V120 CAVOK 28/13 Q1023 NOSIG
  • 220830Z AUTO 09004KT 040V130 CAVOK 26/13 Q1023 NOSIG

TAF TAF LFBI
Valid from the 22 at 06:00 until the 23 at 06:00 UTC


220500Z 2206/2306 02005KT CAVOK
No reported NOTAMs for that airfield.



MET'MAP, your aeronautical weather chart ! - Copyright ORBIFLY December 2007 - Disclaimer

ORBIFLY MET'MAP TEAM :

Programming & Development : Alexandra Zaïnal
Concept & Development : Baudouin d'Aumeries
Co-Development & Prog : Marc-Olivier Méhu
Technical & hardware support : Manuel Goepfert

Contact : metmap@orbifly.com




SOURCES & CREDITS :

   NOAA